createdAt,value
2019-01-22T00:02:38.033Z,32.80
2019-01-22T00:07:43.947Z,27.60
2019-01-22T00:12:49.576Z,27.93
2019-01-22T00:17:55.573Z,24.70
2019-01-22T00:23:02.992Z,36.33
2019-01-22T00:28:09.035Z,37.23
2019-01-22T00:33:15.875Z,35.70
2019-01-22T00:38:22.572Z,34.67
2019-01-22T00:43:28.224Z,28.37
2019-01-22T00:48:33.892Z,34.00
2019-01-22T00:53:39.583Z,30.57
2019-01-22T00:58:45.183Z,41.53
2019-01-22T01:03:50.817Z,31.93
2019-01-22T01:08:56.389Z,33.00
2019-01-22T01:14:02.034Z,38.10
2019-01-22T01:19:07.700Z,34.27
2019-01-22T01:24:13.363Z,34.13
2019-01-22T01:29:19.316Z,30.70
2019-01-22T01:34:24.950Z,35.90
2019-01-22T01:39:30.530Z,31.00
2019-01-22T01:44:36.581Z,31.17
2019-01-22T01:49:43.471Z,29.37
2019-01-22T01:54:49.348Z,37.10
2019-01-22T01:59:54.998Z,32.60
2019-01-22T02:05:00.638Z,33.20
2019-01-22T02:10:07.708Z,44.47
2019-01-22T02:15:18.342Z,33.17
2019-01-22T02:20:40.395Z,33.63
2019-01-22T02:26:21.850Z,25.07
2019-01-22T02:31:57.742Z,27.73
2019-01-22T02:37:43.032Z,27.83
2019-01-22T02:43:15.768Z,28.10
2019-01-22T02:49:09.690Z,34.40
2019-01-22T02:54:21.246Z,27.03
2019-01-22T03:00:10.444Z,27.47
2019-01-22T16:10:29.146Z,72.90
2019-01-22T16:15:34.922Z,60.03
2019-01-22T16:20:41.285Z,64.53
2019-01-22T16:25:46.946Z,72.87
2019-01-22T16:30:53.023Z,56.83
2019-01-22T16:36:00.283Z,57.80
2019-01-22T16:41:06.884Z,99.17
2019-01-22T16:46:12.577Z,99.30
2019-01-22T16:51:18.220Z,60.97
2019-01-22T16:56:26.939Z,56.73
2019-01-22T17:06:37.795Z,59.13
2019-01-22T17:11:43.557Z,57.43
2019-01-22T17:16:49.346Z,53.70
2019-01-22T17:21:57.110Z,60.20
2019-01-22T17:27:07.267Z,55.00
2019-01-22T17:32:49.072Z,62.00
2019-01-22T17:37:54.780Z,71.30
2019-01-22T17:43:00.475Z,50.10
2019-01-22T17:48:07.074Z,70.47
2019-01-22T17:53:12.795Z,123.20
2019-01-22T17:58:19.727Z,87.93
2019-01-22T18:03:27.962Z,52.27
2019-01-22T18:08:33.700Z,54.00
2019-01-22T18:13:40.444Z,39.43
2019-01-22T18:18:46.530Z,51.33
2019-01-22T18:23:52.401Z,40.80
2019-01-22T18:28:58.114Z,36.13
2019-01-22T18:34:04.848Z,37.60
2019-01-22T18:39:12.619Z,45.73
2019-01-22T18:44:22.368Z,38.70
2019-01-22T18:49:29.532Z,44.47
2019-01-22T18:54:38.233Z,46.07
2019-01-22T18:59:44.478Z,41.77
2019-01-22T19:04:51.600Z,38.00
2019-01-22T19:09:57.332Z,41.30
2019-01-22T19:15:07.226Z,38.27
2019-01-22T19:20:14.855Z,46.63
2019-01-22T19:25:25.597Z,49.13
2019-01-22T19:30:32.306Z,41.50
2019-01-22T19:35:39.655Z,49.20
2019-01-22T19:40:45.679Z,35.80
2019-01-22T19:45:51.745Z,39.83
2019-01-22T19:50:57.870Z,46.13
2019-01-22T19:56:14.885Z,41.47
2019-01-22T20:01:22.099Z,56.77
2019-01-22T20:06:28.424Z,41.10
2019-01-22T20:11:36.380Z,42.90
2019-01-22T20:16:42.542Z,43.00
2019-01-22T20:21:49.633Z,52.53
2019-01-22T20:26:55.444Z,60.33
2019-01-22T20:32:12.114Z,51.93
2019-01-22T20:37:19.670Z,57.70
2019-01-22T20:42:25.396Z,42.37
2019-01-22T20:47:31.189Z,45.00
2019-01-22T20:52:36.944Z,56.90
2019-01-22T20:57:42.948Z,52.90
2019-01-22T21:02:50.750Z,68.33
2019-01-22T21:07:57.249Z,62.33
2019-01-22T21:13:05.743Z,51.97
2019-01-22T21:18:11.820Z,50.20
2019-01-22T21:23:18.782Z,45.30
2019-01-22T21:28:24.961Z,42.30
2019-01-22T21:33:31.581Z,56.33
2019-01-22T21:38:37.528Z,43.17
2019-01-22T21:43:43.241Z,53.00
2019-01-22T21:48:49.960Z,66.07
2019-01-22T21:53:55.653Z,69.33
2019-01-22T21:59:01.434Z,52.60
2019-01-22T22:04:09.788Z,62.20
2019-01-22T22:09:16.243Z,46.87
2019-01-22T22:14:22.283Z,53.20
2019-01-22T22:19:29.466Z,51.73
2019-01-22T22:24:36.664Z,54.83
2019-01-22T22:29:42.538Z,61.03
2019-01-22T22:34:48.204Z,62.47
2019-01-22T22:39:53.910Z,58.77
2019-01-22T22:45:00.525Z,64.73
2019-01-22T22:50:08.067Z,49.33
2019-01-22T22:55:13.721Z,67.30
2019-01-22T23:00:32.410Z,53.33
2019-01-22T23:05:39.612Z,48.47
2019-01-22T23:10:47.371Z,58.87
2019-01-22T23:15:54.092Z,52.77
2019-01-22T23:21:00.312Z,52.80
2019-01-22T23:26:09.308Z,51.53
2019-01-22T23:31:15.418Z,57.60
2019-01-22T23:36:21.011Z,49.27
2019-01-22T23:41:26.603Z,42.37
2019-01-22T23:46:33.001Z,56.47
2019-01-22T23:51:47.452Z,43.43
2019-01-22T23:56:54.677Z,54.13
